Time;durP1;ratioP1;P1;durP2;ratioP2;P2;SDS_P1;SDS_P2;PMS_P1;PMS_P2;Temp;Humidity;BMP_temperature;BMP_pressure;BME280_temperature;BME280_humidity;BME280_pressure;Samples;Min_cycle;Max_cycle;Signal;HPM_P1;HPM_P2
2022/08/20 00:00:34;;;;;;;;;;;19.20;99.90;;;;;;5135692;27;19923;-70
2022/08/20 00:03:05;;;;;;;;;;;19.20;99.90;;;;;;5135476;27;20305;-73
2022/08/20 00:05:35;;;;;;;;;;;19.10;99.90;;;;;;5135226;27;20440;-71
2022/08/20 00:08:02;;;;;;;;;;;19.20;99.90;;;;;;5117182;27;20021;-71
2022/08/20 00:10:29;;;;;;;;;;;19.20;99.90;;;;;;5135466;27;19923;-70
2022/08/20 00:12:55;;;;;;;;;;;19.10;99.90;;;;;;5117277;27;19927;-70
2022/08/20 00:15:23;;;;;;;;;;;19.10;99.90;;;;;;5117269;27;19924;-73
2022/08/20 00:17:49;;;;;;;;;;;19.20;99.90;;;;;;5117007;27;19930;-73
2022/08/20 00:20:15;;;;;;;;;;;19.10;99.90;;;;;;5135123;27;20021;-74
2022/08/20 00:22:41;;;;;;;;;;;19.10;99.90;;;;;;5116757;27;19923;-71
2022/08/20 00:25:06;;;;;;;;;;;19.20;99.90;;;;;;5135100;27;19930;-74
2022/08/20 00:27:32;;;;;;;;;;;19.10;99.90;;;;;;5135285;27;19924;-70
2022/08/20 00:29:58;;;;;;;;;;;18.40;99.90;;;;;;5135053;27;19979;-72
2022/08/20 00:32:23;;;;;;;;;;;19.10;99.90;;;;;;5134883;27;20286;-71
2022/08/20 00:34:49;;;;;;;;;;;19.00;99.90;;;;;;5134960;27;19930;-72
2022/08/20 00:37:14;;;;;;;;;;;19.00;99.90;;;;;;5134813;27;19927;-73
2022/08/20 00:39:40;;;;;;;;;;;19.00;99.90;;;;;;5135067;27;19923;-69
2022/08/20 00:42:06;;;;;;;;;;;19.00;99.90;;;;;;5116868;27;19924;-74
2022/08/20 00:44:32;;;;;;;;;;;19.00;99.90;;;;;;5134881;27;19923;-71
2022/08/20 00:46:57;;;;;;;;;;;18.90;99.90;;;;;;5134626;27;20370;-71
2022/08/20 00:49:26;;;;;;;;;;;18.90;99.90;;;;;;5134699;27;19924;-71
2022/08/20 00:51:52;;;;;;;;;;;18.90;99.90;;;;;;5134743;27;20036;-71
2022/08/20 00:54:32;;;;;;;;;;;18.90;99.90;;;;;;5134848;27;20386;-71
2022/08/20 00:57:02;;;;;;;;;;;18.90;99.90;;;;;;5116657;28;19929;-75
2022/08/20 00:59:28;;;;;;;;;;;18.80;99.90;;;;;;5134614;28;19924;-72
2022/08/20 01:01:54;;;;;;;;;;;18.80;99.90;;;;;;5134533;28;19934;-71
2022/08/20 01:04:20;;;;;;;;;;;18.80;99.90;;;;;;5134520;28;20010;-71
2022/08/20 01:06:46;;;;;;;;;;;18.70;99.90;;;;;;5136997;27;19965;-71
2022/08/20 01:09:12;;;;;;;;;;;18.70;99.90;;;;;;5120974;27;19931;-71
2022/08/20 01:11:38;;;;;;;;;;;18.70;99.90;;;;;;5120698;27;19927;-74
2022/08/20 01:16:48;;;;;;;;;;;18.70;99.90;;;;;;5138598;27;20404;-71
2022/08/20 01:19:15;;;;;;;;;;;18.70;99.90;;;;;;5103376;27;19924;-73
2022/08/20 01:21:41;;;;;;;;;;;18.60;99.90;;;;;;5138837;27;19923;-71
2022/08/20 01:24:21;;;;;;;;;;;18.60;99.90;;;;;;5120541;27;19923;-71
2022/08/20 01:26:48;;;;;;;;;;;18.60;99.90;;;;;;5138475;27;20031;-73
2022/08/20 01:29:15;;;;;;;;;;;18.60;99.90;;;;;;5138412;27;19963;-72
2022/08/20 01:31:40;;;;;;;;;;;18.50;99.90;;;;;;5138435;27;19923;-73
2022/08/20 01:34:08;;;;;;;;;;;18.50;99.90;;;;;;5120262;27;19923;-70
2022/08/20 01:36:38;;;;;;;;;;;18.50;99.90;;;;;;5120156;27;19923;-72
2022/08/20 01:39:06;;;;;;;;;;;18.50;99.90;;;;;;5138430;27;19931;-71
2022/08/20 01:41:44;;;;;;;;;;;18.40;99.90;;;;;;5138250;27;19923;-71
2022/08/20 01:44:11;;;;;;;;;;;18.40;99.90;;;;;;5138107;27;20026;-72
2022/08/20 01:46:38;;;;;;;;;;;18.40;99.90;;;;;;5138004;27;19927;-73
2022/08/20 01:49:14;;;;;;;;;;;18.40;99.90;;;;;;5138219;27;19948;-71
2022/08/20 01:51:40;;;;;;;;;;;18.40;99.90;;;;;;5138110;27;19923;-70
2022/08/20 01:54:06;;;;;;;;;;;18.40;99.90;;;;;;5137923;27;20297;-71
2022/08/20 01:56:33;;;;;;;;;;;18.40;99.90;;;;;;5137995;27;19923;-71
2022/08/20 01:59:00;;;;;;;;;;;18.40;99.90;;;;;;5137835;27;19931;-74
2022/08/20 02:01:33;;;;;;;;;;;18.30;99.90;;;;;;5138095;27;20378;-73
2022/08/20 02:04:00;;;;;;;;;;;18.30;99.90;;;;;;5119820;27;19930;-71
2022/08/20 02:06:27;;;;;;;;;;;18.30;99.90;;;;;;5137754;27;19923;-70
2022/08/20 02:08:54;;;;;;;;;;;18.30;99.90;;;;;;5137763;27;19927;-74
2022/08/20 02:11:20;;;;;;;;;;;18.20;99.90;;;;;;5137700;27;20271;-71
2022/08/20 02:13:51;;;;;;;;;;;18.20;99.90;;;;;;5137609;27;20052;-71
2022/08/20 02:16:17;;;;;;;;;;;18.20;99.90;;;;;;5137815;27;19923;-71
2022/08/20 02:18:43;;;;;;;;;;;18.20;99.90;;;;;;5137496;27;19923;-75
2022/08/20 02:21:09;;;;;;;;;;;18.20;99.90;;;;;;5137494;27;19931;-71
2022/08/20 02:23:34;;;;;;;;;;;18.20;99.90;;;;;;5137628;27;19927;-71
2022/08/20 02:26:00;;;;;;;;;;;18.20;99.90;;;;;;5137537;27;19963;-73
2022/08/20 02:28:26;;;;;;;;;;;18.10;99.90;;;;;;5137200;27;19923;-70
2022/08/20 02:30:54;;;;;;;;;;;18.10;99.90;;;;;;5137514;27;19923;-71
2022/08/20 02:33:20;;;;;;;;;;;18.10;99.90;;;;;;5119006;27;20010;-70
2022/08/20 02:35:47;;;;;;;;;;;18.10;99.90;;;;;;5119260;27;19969;-71
2022/08/20 02:38:14;;;;;;;;;;;18.10;99.90;;;;;;5137292;27;19968;-74
2022/08/20 02:40:40;;;;;;;;;;;18.10;99.90;;;;;;5119058;27;19927;-74
2022/08/20 02:43:06;;;;;;;;;;;18.10;99.90;;;;;;5118632;27;19923;-71
2022/08/20 02:45:42;;;;;;;;;;;18.10;99.90;;;;;;5118501;27;19958;-70
2022/08/20 02:48:09;;;;;;;;;;;18.10;99.90;;;;;;5136915;27;19930;-70
2022/08/20 02:50:35;;;;;;;;;;;18.00;99.90;;;;;;5136942;27;19934;-72
2022/08/20 02:53:00;;;;;;;;;;;18.00;99.90;;;;;;5136882;27;19923;-75
2022/08/20 02:55:26;;;;;;;;;;;18.00;99.90;;;;;;5118426;27;20010;-71
2022/08/20 02:57:53;;;;;;;;;;;18.00;99.90;;;;;;5136703;27;19924;-70
2022/08/20 03:00:19;;;;;;;;;;;17.90;99.90;;;;;;5118645;27;19924;-71
2022/08/20 03:02:45;;;;;;;;;;;17.90;99.90;;;;;;5118643;27;19928;-75
2022/08/20 03:05:11;;;;;;;;;;;17.90;99.90;;;;;;5136744;27;19968;-73
2022/08/20 03:07:44;;;;;;;;;;;17.90;99.90;;;;;;5136491;27;19981;-71
2022/08/20 03:10:10;;;;;;;;;;;17.90;99.90;;;;;;5136612;27;20267;-71
2022/08/20 03:12:37;;;;;;;;;;;17.90;99.90;;;;;;5136486;27;19967;-73
2022/08/20 03:15:03;;;;;;;;;;;17.90;99.90;;;;;;5101061;27;19924;-71
2022/08/20 03:17:28;;;;;;;;;;;17.80;99.90;;;;;;5118318;27;20010;-70
2022/08/20 03:19:54;;;;;;;;;;;17.80;99.90;;;;;;5136352;27;20018;-74
2022/08/20 03:22:20;;;;;;;;;;;17.80;99.90;;;;;;5118384;27;19923;-70
2022/08/20 03:24:45;;;;;;;;;;;17.80;99.90;;;;;;5136073;27;19924;-73
2022/08/20 03:27:11;;;;;;;;;;;17.80;99.90;;;;;;5136133;27;20022;-75
2022/08/20 03:29:37;;;;;;;;;;;17.90;99.90;;;;;;5135882;27;19931;-69
2022/08/20 03:32:03;;;;;;;;;;;17.70;99.90;;;;;;5118239;27;19924;-69
2022/08/20 03:34:28;;;;;;;;;;;17.70;99.90;;;;;;5136079;27;20283;-71
2022/08/20 03:36:54;;;;;;;;;;;17.70;99.90;;;;;;5136099;27;19934;-71
2022/08/20 03:39:20;;;;;;;;;;;17.70;99.90;;;;;;5118004;27;20398;-71
2022/08/20 03:41:45;;;;;;;;;;;17.60;99.90;;;;;;5135837;27;19971;-71
2022/08/20 03:44:11;;;;;;;;;;;17.60;99.90;;;;;;5135833;27;19931;-71
2022/08/20 03:46:37;;;;;;;;;;;17.60;99.90;;;;;;5135929;27;20340;-70
2022/08/20 03:49:03;;;;;;;;;;;17.50;99.90;;;;;;5135840;27;19992;-71
2022/08/20 03:51:29;;;;;;;;;;;17.50;99.90;;;;;;5117739;27;19928;-70
2022/08/20 03:53:55;;;;;;;;;;;17.50;99.90;;;;;;5135917;27;19953;-70
2022/08/20 03:56:21;;;;;;;;;;;17.50;99.90;;;;;;5117599;27;19930;-71
2022/08/20 03:58:46;;;;;;;;;;;17.40;99.90;;;;;;5117177;27;19927;-72
2022/08/20 04:01:12;;;;;;;;;;;17.40;99.90;;;;;;5135710;27;19930;-75
2022/08/20 04:03:37;;;;;;;;;;;17.30;99.90;;;;;;5116907;27;19985;-70
2022/08/20 04:06:03;;;;;;;;;;;17.30;99.90;;;;;;5135185;27;19968;-71
2022/08/20 04:08:29;;;;;;;;;;;17.30;99.90;;;;;;5135433;27;19929;-71
2022/08/20 04:10:56;;;;;;;;;;;17.30;99.90;;;;;;5117290;27;19927;-72
2022/08/20 04:13:22;;;;;;;;;;;17.20;99.90;;;;;;5135176;27;20374;-75
2022/08/20 04:15:48;;;;;;;;;;;17.20;99.90;;;;;;5117059;27;20022;-71
2022/08/20 04:18:14;;;;;;;;;;;17.20;99.90;;;;;;5100262;27;20003;-75
2022/08/20 04:20:41;;;;;;;;;;;17.20;99.90;;;;;;5117258;27;19930;-71
2022/08/20 04:23:07;;;;;;;;;;;17.10;99.90;;;;;;5135267;27;19923;-71
2022/08/20 04:25:34;;;;;;;;;;;17.10;99.90;;;;;;5117687;27;19967;-71
2022/08/20 04:28:01;;;;;;;;;;;17.10;99.90;;;;;;5137121;27;20370;-71
2022/08/20 04:30:27;;;;;;;;;;;17.00;99.90;;;;;;5155817;27;19923;-71
2022/08/20 04:32:54;;;;;;;;;;;17.10;99.90;;;;;;5137507;27;20366;-70
2022/08/20 04:35:20;;;;;;;;;;;17.00;99.90;;;;;;5137008;27;19930;-70
2022/08/20 04:37:45;;;;;;;;;;;17.00;99.90;;;;;;5155757;27;19923;-73
2022/08/20 04:42:57;;;;;;;;;;;17.00;99.90;;;;;;5155494;27;20292;-72
2022/08/20 04:45:23;;;;;;;;;;;17.00;99.90;;;;;;5155796;27;19923;-70
2022/08/20 04:47:49;;;;;;;;;;;17.00;99.90;;;;;;5155495;27;19923;-72
2022/08/20 04:50:14;;;;;;;;;;;17.00;99.90;;;;;;5155535;27;20002;-71
2022/08/20 04:52:40;;;;;;;;;;;17.00;99.90;;;;;;5155288;27;19962;-70
2022/08/20 04:55:06;;;;;;;;;;;17.00;99.90;;;;;;5137162;27;19979;-71
2022/08/20 04:57:32;;;;;;;;;;;17.00;99.90;;;;;;5136922;27;19923;-72
2022/08/20 04:59:57;;;;;;;;;;;16.90;99.90;;;;;;5155573;27;19931;-70
2022/08/20 05:02:23;;;;;;;;;;;16.90;99.90;;;;;;5137364;27;19923;-74
2022/08/20 05:04:48;;;;;;;;;;;16.90;99.90;;;;;;5155420;27;19974;-74
2022/08/20 05:07:14;;;;;;;;;;;16.90;99.90;;;;;;5136896;27;20005;-75
2022/08/20 05:09:41;;;;;;;;;;;16.90;99.90;;;;;;5155418;27;19929;-70
2022/08/20 05:12:06;;;;;;;;;;;16.80;99.90;;;;;;5155258;27;19923;-70
2022/08/20 05:14:32;;;;;;;;;;;16.90;99.90;;;;;;5137018;27;20270;-71
2022/08/20 05:17:00;;;;;;;;;;;16.80;99.90;;;;;;5155306;27;19930;-74
2022/08/20 05:19:27;;;;;;;;;;;16.80;99.90;;;;;;5155115;27;20385;-70
2022/08/20 05:21:53;;;;;;;;;;;16.80;99.90;;;;;;5155229;27;19929;-73
2022/08/20 05:24:20;;;;;;;;;;;16.80;99.90;;;;;;5155114;27;19923;-71
2022/08/20 05:26:45;;;;;;;;;;;16.80;99.90;;;;;;5154912;27;19923;-70
2022/08/20 05:29:12;;;;;;;;;;;16.80;99.90;;;;;;5136857;27;20377;-70
2022/08/20 05:31:38;;;;;;;;;;;16.80;99.90;;;;;;5155251;27;19934;-70
2022/08/20 05:34:10;;;;;;;;;;;16.80;99.90;;;;;;5155102;27;19930;-72
2022/08/20 05:36:38;;;;;;;;;;;16.90;99.90;;;;;;5155109;27;19948;-71
2022/08/20 05:39:04;;;;;;;;;;;17.00;99.90;;;;;;5155044;27;19927;-73
2022/08/20 05:41:30;;;;;;;;;;;16.90;99.90;;;;;;5154894;27;19948;-70
2022/08/20 05:44:01;;;;;;;;;;;16.80;99.90;;;;;;5155231;27;19923;-72
2022/08/20 05:46:28;;;;;;;;;;;16.90;99.90;;;;;;5155035;27;19923;-71
2022/08/20 05:48:54;;;;;;;;;;;16.90;99.90;;;;;;5154948;27;19926;-75
2022/08/20 05:51:19;;;;;;;;;;;16.90;99.90;;;;;;5154950;27;20388;-74
2022/08/20 05:53:45;;;;;;;;;;;16.90;99.90;;;;;;5158787;27;19923;-70
2022/08/20 05:56:10;;;;;;;;;;;16.90;99.90;;;;;;5140479;27;19923;-70
2022/08/20 05:58:36;;;;;;;;;;;16.80;99.90;;;;;;5140428;27;19984;-70
2022/08/20 06:01:02;;;;;;;;;;;16.70;99.90;;;;;;5158831;27;19923;-71
2022/08/20 06:06:12;;;;;;;;;;;16.80;99.90;;;;;;5140219;27;19930;-71
2022/08/20 06:08:38;;;;;;;;;;;16.80;99.90;;;;;;5158490;27;20315;-71
2022/08/20 06:11:04;;;;;;;;;;;16.80;99.90;;;;;;5158384;27;19966;-70
2022/08/20 06:13:29;;;;;;;;;;;16.80;99.90;;;;;;5140149;27;19923;-71
2022/08/20 06:15:56;;;;;;;;;;;16.70;99.90;;;;;;5140316;27;20289;-70
2022/08/20 06:18:22;;;;;;;;;;;16.70;99.90;;;;;;5140120;27;19923;-71
2022/08/20 06:20:48;;;;;;;;;;;16.80;99.90;;;;;;5158327;27;19934;-71
2022/08/20 06:23:14;;;;;;;;;;;16.80;99.90;;;;;;5158289;27;20415;-74
2022/08/20 06:25:39;;;;;;;;;;;16.80;99.90;;;;;;5157918;27;19923;-70
2022/08/20 06:28:05;;;;;;;;;;;16.90;99.90;;;;;;5139751;27;19930;-73
2022/08/20 06:30:31;;;;;;;;;;;16.90;99.90;;;;;;5158149;27;19923;-70
2022/08/20 06:32:57;;;;;;;;;;;16.90;99.90;;;;;;5139903;27;19923;-70
2022/08/20 06:35:23;;;;;;;;;;;16.90;99.90;;;;;;5139779;27;19927;-70
2022/08/20 06:37:49;;;;;;;;;;;16.90;99.90;;;;;;5139768;27;19972;-71
2022/08/20 06:40:16;;;;;;;;;;;17.00;99.90;;;;;;5157896;27;20353;-70
2022/08/20 06:42:44;;;;;;;;;;;17.00;99.90;;;;;;5157842;27;19923;-74
2022/08/20 06:45:15;;;;;;;;;;;17.00;99.90;;;;;;5155710;27;20101;-71
2022/08/20 06:47:42;;;;;;;;;;;17.00;99.90;;;;;;5157547;27;19923;-72
2022/08/20 06:50:11;;;;;;;;;;;17.00;99.90;;;;;;5159234;27;19927;-73
2022/08/20 06:52:38;;;;;;;;;;;17.00;99.90;;;;;;5157289;27;19923;-70
2022/08/20 06:55:04;;;;;;;;;;;17.10;99.90;;;;;;5157249;27;19923;-71
2022/08/20 06:57:29;;;;;;;;;;;17.10;99.90;;;;;;5157236;27;19931;-71
2022/08/20 06:59:55;;;;;;;;;;;17.10;99.90;;;;;;5157611;27;20009;-72
2022/08/20 07:02:23;;;;;;;;;;;17.10;99.90;;;;;;5139365;27;20286;-71
2022/08/20 07:04:49;;;;;;;;;;;17.10;99.90;;;;;;5138078;27;19923;-73
2022/08/20 07:07:16;;;;;;;;;;;17.10;99.90;;;;;;5157449;27;20052;-71
2022/08/20 07:09:42;;;;;;;;;;;17.10;99.90;;;;;;5157267;27;19923;-76
2022/08/20 07:12:09;;;;;;;;;;;17.20;99.90;;;;;;5157174;27;19975;-71
2022/08/20 07:14:35;;;;;;;;;;;17.20;99.90;;;;;;5157164;27;19927;-71
2022/08/20 07:17:03;;;;;;;;;;;17.20;99.90;;;;;;5157407;27;19923;-71
2022/08/20 07:19:30;;;;;;;;;;;17.30;99.90;;;;;;5157061;27;20404;-70
2022/08/20 07:21:55;;;;;;;;;;;17.30;99.90;;;;;;5157113;27;19923;-72
2022/08/20 07:24:21;;;;;;;;;;;17.40;99.90;;;;;;5157403;27;19930;-74
2022/08/20 07:26:47;;;;;;;;;;;17.40;99.90;;;;;;5157123;27;19972;-71
2022/08/20 07:29:13;;;;;;;;;;;17.50;99.90;;;;;;5157015;27;19923;-75
2022/08/20 07:34:24;;;;;;;;;;;17.60;99.90;;;;;;5113095;28;20418;-73
2022/08/20 07:36:50;;;;;;;;;;;17.70;99.90;;;;;;5113222;28;20031;-71
2022/08/20 07:39:15;;;;;;;;;;;17.70;99.90;;;;;;5096431;28;20031;-73
2022/08/20 07:41:41;;;;;;;;;;;17.70;99.90;;;;;;5113309;28;19978;-71
2022/08/20 07:44:06;;;;;;;;;;;17.80;99.90;;;;;;5113111;28;20022;-73
2022/08/20 07:46:32;;;;;;;;;;;17.80;99.90;;;;;;5112959;28;19923;-72
2022/08/20 07:48:57;;;;;;;;;;;17.80;99.90;;;;;;5112977;28;19977;-71
2022/08/20 07:51:24;;;;;;;;;;;17.80;99.90;;;;;;5112964;28;19928;-72
2022/08/20 07:53:52;;;;;;;;;;;17.80;99.90;;;;;;5113128;28;19924;-74
2022/08/20 07:56:20;;;;;;;;;;;17.80;99.90;;;;;;5112958;28;19924;-75
2022/08/20 07:58:51;;;;;;;;;;;17.80;99.90;;;;;;5112894;28;19924;-72
2022/08/20 08:01:18;;;;;;;;;;;17.90;99.90;;;;;;5112738;28;19971;-71
2022/08/20 08:03:44;;;;;;;;;;;17.90;99.90;;;;;;5112779;28;19931;-71
2022/08/20 08:06:10;;;;;;;;;;;17.90;99.90;;;;;;5112743;28;19924;-72
2022/08/20 08:08:37;;;;;;;;;;;17.90;99.90;;;;;;5112165;28;19946;-71
2022/08/20 08:11:03;;;;;;;;;;;17.90;99.90;;;;;;5126701;27;19923;-73
2022/08/20 08:13:32;;;;;;;;;;;17.40;99.90;;;;;;5156095;27;20377;-71
2022/08/20 08:16:00;;;;;;;;;;;17.90;99.90;;;;;;5156005;27;19923;-71
2022/08/20 08:18:27;;;;;;;;;;;18.00;99.90;;;;;;5155893;27;19923;-75
2022/08/20 08:20:53;;;;;;;;;;;17.90;99.90;;;;;;5137745;27;19923;-71
2022/08/20 08:23:20;;;;;;;;;;;17.90;99.90;;;;;;5155888;27;20370;-71
2022/08/20 08:25:46;;;;;;;;;;;17.90;99.90;;;;;;5155898;27;19923;-71
2022/08/20 08:28:12;;;;;;;;;;;18.00;99.90;;;;;;5155631;27;20018;-71
2022/08/20 08:30:39;;;;;;;;;;;18.00;99.90;;;;;;5155811;27;19923;-73
2022/08/20 08:35:49;;;;;;;;;;;18.10;99.90;;;;;;5155631;27;20018;-72
2022/08/20 08:38:15;;;;;;;;;;;18.20;99.90;;;;;;5137296;27;20021;-74
2022/08/20 08:40:42;;;;;;;;;;;18.20;99.90;;;;;;5155790;27;19923;-74
2022/08/20 08:43:10;;;;;;;;;;;18.30;99.90;;;;;;5137345;27;19923;-70
2022/08/20 08:45:44;;;;;;;;;;;18.10;99.90;;;;;;5155569;27;20026;-74
2022/08/20 08:48:12;;;;;;;;;;;18.40;99.90;;;;;;5155369;27;19923;-73
2022/08/20 08:50:39;;;;;;;;;;;18.40;99.90;;;;;;5155382;27;20404;-72
2022/08/20 08:53:04;;;;;;;;;;;18.40;99.90;;;;;;5155593;27;20055;-72
2022/08/20 08:55:30;;;;;;;;;;;18.40;99.90;;;;;;5155329;27;20411;-73
2022/08/20 08:57:58;;;;;;;;;;;18.40;99.90;;;;;;5155530;27;20027;-73
2022/08/20 09:00:25;;;;;;;;;;;18.40;99.90;;;;;;5155420;27;19925;-75
2022/08/20 09:02:56;;;;;;;;;;;18.40;99.90;;;;;;5155434;27;19930;-71
2022/08/20 09:05:22;;;;;;;;;;;18.40;99.90;;;;;;5155147;27;20014;-71
2022/08/20 09:07:49;;;;;;;;;;;18.50;99.90;;;;;;5155485;27;19934;-71
2022/08/20 09:10:16;;;;;;;;;;;18.40;99.90;;;;;;5155439;27;19983;-71
2022/08/20 09:12:43;;;;;;;;;;;18.50;99.90;;;;;;5155236;27;20014;-73
2022/08/20 09:15:09;;;;;;;;;;;18.50;99.90;;;;;;5136835;27;19999;-71
2022/08/20 09:17:34;;;;;;;;;;;18.60;99.90;;;;;;5155250;27;19974;-70
2022/08/20 09:20:00;;;;;;;;;;;18.60;99.90;;;;;;5136738;27;20005;-71
2022/08/20 09:22:25;;;;;;;;;;;18.70;99.90;;;;;;5155307;27;19927;-71
2022/08/20 09:24:52;;;;;;;;;;;18.80;99.90;;;;;;5155176;27;19923;-71
2022/08/20 09:27:17;;;;;;;;;;;18.90;99.90;;;;;;5156519;27;19923;-71
2022/08/20 09:29:43;;;;;;;;;;;18.10;99.90;;;;;;5159293;27;19923;-72
2022/08/20 09:32:13;;;;;;;;;;;19.00;99.90;;;;;;5159342;27;19923;-71
2022/08/20 09:34:40;;;;;;;;;;;19.10;99.90;;;;;;5158988;27;19930;-71
2022/08/20 09:37:06;;;;;;;;;;;19.10;99.90;;;;;;5159300;27;19930;-71
2022/08/20 09:39:31;;;;;;;;;;;19.20;99.90;;;;;;5123855;27;19923;-71
2022/08/20 09:42:10;;;;;;;;;;;19.20;99.90;;;;;;5159120;27;19982;-72
2022/08/20 09:44:36;;;;;;;;;;;19.50;99.90;;;;;;5158933;27;20017;-73
2022/08/20 09:47:02;;;;;;;;;;;19.30;99.90;;;;;;5140456;27;20013;-74
2022/08/20 09:49:27;;;;;;;;;;;19.30;99.90;;;;;;5158560;27;19931;-72
2022/08/20 09:51:53;;;;;;;;;;;19.40;99.90;;;;;;5159001;27;19923;-71
2022/08/20 09:54:19;;;;;;;;;;;19.50;99.90;;;;;;5159046;27;20458;-74
2022/08/20 09:56:45;;;;;;;;;;;19.60;99.90;;;;;;5158784;27;19938;-71
2022/08/20 09:59:12;;;;;;;;;;;19.70;99.90;;;;;;5140495;27;19923;-70
2022/08/20 10:01:38;;;;;;;;;;;19.10;99.90;;;;;;5158597;27;19923;-73
2022/08/20 10:04:04;;;;;;;;;;;19.80;99.90;;;;;;5158186;27;19965;-73
2022/08/20 10:06:29;;;;;;;;;;;19.90;99.90;;;;;;5139868;27;19948;-70
2022/08/20 10:08:55;;;;;;;;;;;19.90;99.90;;;;;;5140480;27;19934;-76
2022/08/20 10:11:20;;;;;;;;;;;20.00;99.90;;;;;;5158633;27;19930;-73
2022/08/20 10:13:46;;;;;;;;;;;19.90;99.90;;;;;;5139502;27;20009;-73
2022/08/20 10:16:12;;;;;;;;;;;20.00;99.90;;;;;;5140167;27;20013;-72
2022/08/20 10:18:37;;;;;;;;;;;20.00;99.90;;;;;;5158207;27;19977;-71
2022/08/20 10:21:08;;;;;;;;;;;20.10;99.90;;;;;;5157119;27;19923;-71
2022/08/20 10:23:33;;;;;;;;;;;20.20;99.90;;;;;;5139127;27;19923;-73
2022/08/20 10:25:59;;;;;;;;;;;20.20;99.90;;;;;;5139514;27;20055;-71
2022/08/20 10:28:24;;;;;;;;;;;20.40;99.90;;;;;;5158139;27;19927;-72
2022/08/20 10:30:50;;;;;;;;;;;20.40;99.90;;;;;;5139665;27;20018;-71
2022/08/20 10:33:15;;;;;;;;;;;20.50;99.90;;;;;;5158009;27;19924;-71
2022/08/20 10:35:41;;;;;;;;;;;20.50;99.90;;;;;;5139541;27;19930;-70
2022/08/20 10:38:06;;;;;;;;;;;20.60;99.90;;;;;;5157175;27;19950;-71
2022/08/20 10:40:32;;;;;;;;;;;20.60;99.90;;;;;;5139317;27;19923;-72
2022/08/20 10:42:58;;;;;;;;;;;20.00;99.90;;;;;;5157796;27;19923;-71
2022/08/20 10:45:24;;;;;;;;;;;20.60;99.90;;;;;;5139572;27;19923;-70
2022/08/20 10:47:50;;;;;;;;;;;20.50;99.90;;;;;;5158107;27;19923;-73
2022/08/20 10:50:16;;;;;;;;;;;20.50;99.90;;;;;;5157209;27;20401;-70
2022/08/20 10:52:41;;;;;;;;;;;20.50;99.90;;;;;;5121848;27;19923;-70
2022/08/20 10:55:07;;;;;;;;;;;20.50;99.90;;;;;;5157703;27;19981;-70
2022/08/20 10:57:33;;;;;;;;;;;20.50;99.90;;;;;;5157717;27;19923;-71
2022/08/20 10:59:59;;;;;;;;;;;20.50;99.90;;;;;;5139130;27;19930;-70
2022/08/20 11:02:25;;;;;;;;;;;20.60;99.90;;;;;;5138404;27;19927;-72
2022/08/20 11:04:51;;;;;;;;;;;20.70;99.90;;;;;;5157340;27;19923;-70
2022/08/20 11:07:22;;;;;;;;;;;20.70;99.90;;;;;;5138530;27;19927;-70
2022/08/20 11:09:48;;;;;;;;;;;20.70;99.90;;;;;;5157407;27;19923;-70
2022/08/20 11:12:15;;;;;;;;;;;20.70;99.90;;;;;;5157211;27;19978;-73
2022/08/20 11:14:41;;;;;;;;;;;20.70;99.90;;;;;;5157314;27;19930;-74
2022/08/20 11:17:07;;;;;;;;;;;20.70;99.90;;;;;;5157185;27;19930;-70
2022/08/20 11:19:37;;;;;;;;;;;20.60;99.90;;;;;;5156974;27;20010;-72
2022/08/20 11:22:03;;;;;;;;;;;20.70;99.90;;;;;;5156801;27;20396;-72
2022/08/20 11:24:28;;;;;;;;;;;20.70;99.90;;;;;;5138370;27;19923;-72
2022/08/20 11:26:55;;;;;;;;;;;20.90;99.90;;;;;;5156994;27;19924;-70
2022/08/20 11:29:21;;;;;;;;;;;20.80;99.90;;;;;;5157052;27;20392;-71
2022/08/20 11:31:47;;;;;;;;;;;20.80;99.90;;;;;;5156918;27;19923;-70
2022/08/20 11:34:13;;;;;;;;;;;20.80;99.90;;;;;;5156355;27;19949;-70
2022/08/20 11:36:38;;;;;;;;;;;20.80;99.90;;;;;;5137638;27;20387;-74
2022/08/20 11:39:04;;;;;;;;;;;20.80;99.90;;;;;;5138020;27;19923;-72
2022/08/20 11:41:29;;;;;;;;;;;20.80;99.90;;;;;;5156872;27;19948;-70
2022/08/20 11:43:55;;;;;;;;;;;20.80;99.90;;;;;;5120846;27;19985;-70
2022/08/20 11:46:21;;;;;;;;;;;20.70;99.90;;;;;;5156424;27;19923;-69
2022/08/20 11:48:46;;;;;;;;;;;20.80;99.90;;;;;;5156518;27;19923;-71
2022/08/20 11:51:12;;;;;;;;;;;20.80;99.90;;;;;;5155802;27;20013;-70
2022/08/20 11:53:37;;;;;;;;;;;20.70;99.90;;;;;;5156739;27;19923;-71
2022/08/20 11:56:03;;;;;;;;;;;20.80;99.90;;;;;;5156148;27;19923;-72
2022/08/20 11:58:29;;;;;;;;;;;20.80;99.90;;;;;;5156484;27;19971;-73
2022/08/20 12:00:54;;;;;;;;;;;20.80;99.90;;;;;;5156388;27;19950;-70
2022/08/20 12:03:20;;;;;;;;;;;20.80;99.90;;;;;;5156353;27;20408;-73
2022/08/20 12:05:46;;;;;;;;;;;20.90;99.90;;;;;;5156036;27;20308;-74
2022/08/20 12:08:12;;;;;;;;;;;20.90;99.90;;;;;;5155912;27;19927;-70
2022/08/20 12:10:38;;;;;;;;;;;21.00;99.90;;;;;;5137767;27;19930;-70
2022/08/20 12:13:04;;;;;;;;;;;21.00;99.90;;;;;;5156021;27;19927;-72
2022/08/20 12:15:30;;;;;;;;;;;21.00;99.90;;;;;;5155973;27;19930;-70
2022/08/20 12:17:56;;;;;;;;;;;21.00;99.90;;;;;;5156023;27;19923;-70
2022/08/20 12:20:22;;;;;;;;;;;21.00;99.90;;;;;;5155734;27;19923;-71
2022/08/20 12:22:48;;;;;;;;;;;20.90;99.90;;;;;;5137544;27;19930;-69
2022/08/20 12:25:14;;;;;;;;;;;21.00;99.90;;;;;;5155697;27;19930;-70
2022/08/20 12:27:41;;;;;;;;;;;21.00;99.90;;;;;;5136987;27;20345;-73
2022/08/20 12:30:09;;;;;;;;;;;21.00;99.90;;;;;;5155861;27;19922;-71
2022/08/20 12:32:35;;;;;;;;;;;21.10;99.90;;;;;;5155739;27;19950;-70
2022/08/20 12:35:01;;;;;;;;;;;21.10;99.90;;;;;;5136892;27;20370;-70
2022/08/20 12:37:29;;;;;;;;;;;21.10;99.90;;;;;;5155506;27;19945;-70
2022/08/20 12:39:55;;;;;;;;;;;21.10;99.90;;;;;;5155752;27;19927;-75
2022/08/20 12:42:21;;;;;;;;;;;21.10;99.90;;;;;;5155714;27;19938;-70
2022/08/20 12:44:48;;;;;;;;;;;21.10;99.90;;;;;;5155573;27;19931;-70
2022/08/20 12:47:13;;;;;;;;;;;21.20;99.90;;;;;;5137225;27;19982;-71
2022/08/20 12:49:52;;;;;;;;;;;21.20;99.90;;;;;;5155370;27;20315;-71
2022/08/20 12:52:19;;;;;;;;;;;21.30;99.90;;;;;;5137088;27;19923;-70
2022/08/20 12:54:45;;;;;;;;;;;21.30;99.90;;;;;;5155649;27;20013;-74
2022/08/20 12:57:14;;;;;;;;;;;21.30;99.90;;;;;;5155669;27;20019;-71
2022/08/20 12:59:40;;;;;;;;;;;21.30;99.90;;;;;;5155371;27;19930;-74
2022/08/20 13:02:06;;;;;;;;;;;21.30;99.90;;;;;;5154370;27;19989;-70
2022/08/20 13:04:32;;;;;;;;;;;21.30;99.90;;;;;;5136836;27;20413;-72
2022/08/20 13:07:01;;;;;;;;;;;21.20;99.90;;;;;;5154951;27;19923;-70
2022/08/20 13:09:27;;;;;;;;;;;21.20;99.90;;;;;;5155359;27;19923;-70
2022/08/20 13:11:53;;;;;;;;;;;21.10;99.90;;;;;;5155382;27;20409;-70
2022/08/20 13:14:19;;;;;;;;;;;21.10;99.90;;;;;;5155123;27;19923;-70
2022/08/20 13:16:45;;;;;;;;;;;21.10;99.90;;;;;;5154880;27;19927;-72
2022/08/20 13:19:10;;;;;;;;;;;21.10;99.90;;;;;;5155147;27;20319;-71
2022/08/20 13:21:36;;;;;;;;;;;21.20;99.90;;;;;;5165075;27;19923;-70
2022/08/20 13:24:02;;;;;;;;;;;21.20;99.90;;;;;;5165958;27;19922;-72
2022/08/20 13:26:27;;;;;;;;;;;21.20;99.90;;;;;;5154961;27;19930;-71
2022/08/20 13:28:53;;;;;;;;;;;21.30;99.90;;;;;;5154970;27;19923;-71
2022/08/20 13:31:19;;;;;;;;;;;21.30;99.90;;;;;;5170235;27;20381;-73
2022/08/20 13:33:45;;;;;;;;;;;21.30;99.90;;;;;;5162525;27;19927;-73
2022/08/20 13:36:11;;;;;;;;;;;21.30;99.90;;;;;;5149495;27;19923;-73
2022/08/20 13:38:36;;;;;;;;;;;21.30;99.90;;;;;;5155092;27;19931;-75
2022/08/20 13:41:02;;;;;;;;;;;21.30;99.90;;;;;;5165896;27;20381;-72
2022/08/20 13:43:28;;;;;;;;;;;21.30;99.90;;;;;;5174807;27;19923;-73
2022/08/20 13:45:54;;;;;;;;;;;21.40;99.90;;;;;;5172528;27;20408;-72
2022/08/20 13:48:20;;;;;;;;;;;21.40;99.90;;;;;;5175553;27;19923;-73
2022/08/20 13:50:45;;;;;;;;;;;21.40;99.90;;;;;;5170465;27;19933;-72
2022/08/20 13:53:11;;;;;;;;;;;21.50;99.90;;;;;;5164650;27;20368;-72
2022/08/20 13:55:37;;;;;;;;;;;21.50;99.90;;;;;;5155612;27;19923;-73
2022/08/20 13:58:03;;;;;;;;;;;21.50;99.90;;;;;;5154631;27;19981;-76
2022/08/20 14:00:30;;;;;;;;;;;21.60;99.90;;;;;;5170485;27;19922;-71
2022/08/20 14:02:56;;;;;;;;;;;21.60;99.90;;;;;;5175600;27;19980;-73
2022/08/20 14:05:22;;;;;;;;;;;21.60;99.90;;;;;;5171948;27;19923;-72
2022/08/20 14:07:48;;;;;;;;;;;21.60;99.90;;;;;;5171780;27;20365;-72
2022/08/20 14:10:16;;;;;;;;;;;21.70;99.90;;;;;;5173697;27;19926;-77
2022/08/20 14:12:42;;;;;;;;;;;21.80;99.90;;;;;;5175957;27;20006;-72
2022/08/20 14:15:09;;;;;;;;;;;21.80;99.90;;;;;;5156835;27;19927;-71
2022/08/20 14:17:37;;;;;;;;;;;21.70;99.90;;;;;;5144072;27;19923;-71
2022/08/20 14:20:23;;;;;;;;;;;21.70;99.90;;;;;;5140063;27;19966;-73
2022/08/20 14:22:48;;;;;;;;;;;21.70;99.90;;;;;;5157688;27;19923;-72
2022/08/20 14:25:15;;;;;;;;;;;21.60;99.90;;;;;;5158415;27;19923;-72